createdAt,value
2019-03-17T08:08:46.840Z,99.90
2019-03-17T08:11:14.508Z,99.90
2019-03-17T08:13:42.022Z,99.90
2019-03-17T08:16:09.562Z,99.90
2019-03-17T08:18:37.195Z,99.90
2019-03-17T08:21:04.729Z,99.90
2019-03-17T08:23:32.263Z,99.90
2019-03-17T08:25:59.866Z,99.90
2019-03-17T08:28:27.421Z,99.90
2019-03-17T08:30:54.981Z,99.70
2019-03-17T08:33:22.562Z,98.70
2019-03-17T08:35:50.131Z,99.10
2019-03-17T08:38:22.269Z,98.50
2019-03-17T08:40:47.083Z,98.10
2019-03-17T08:43:14.708Z,96.40
2019-03-17T08:45:42.219Z,96.60
2019-03-17T08:48:09.793Z,96.50
2019-03-17T08:50:37.441Z,96.60
2019-03-17T08:53:05.191Z,95.20
2019-03-17T08:55:32.821Z,94.60
2019-03-17T08:58:00.407Z,94.40
2019-03-17T09:00:27.935Z,94.40
2019-03-17T09:02:55.524Z,93.50
2019-03-17T09:05:23.187Z,93.20
2019-03-17T09:07:50.796Z,92.60
2019-03-17T09:10:19.571Z,92.10
2019-03-17T09:12:47.181Z,92.30
2019-03-17T09:15:14.688Z,92.90
2019-03-17T09:17:42.245Z,91.80
2019-03-17T09:20:10.031Z,91.90
2019-03-17T09:22:37.547Z,92.00
2019-03-17T09:25:05.471Z,91.90
2019-03-17T09:27:32.998Z,91.60
2019-03-17T09:30:00.513Z,91.60
2019-03-17T09:32:28.083Z,91.40
2019-03-17T09:34:55.639Z,90.90
2019-03-17T09:37:23.158Z,90.20
2019-03-17T09:39:50.700Z,90.80
2019-03-17T09:42:18.233Z,88.10
2019-03-17T09:44:45.791Z,85.30
2019-03-17T09:47:13.359Z,84.60
2019-03-17T09:49:40.877Z,84.80
2019-03-17T09:52:08.435Z,82.30
2019-03-17T09:54:35.971Z,81.30
2019-03-17T09:57:03.490Z,82.80
2019-03-17T09:59:31.039Z,81.60
2019-03-17T10:01:58.583Z,77.50
2019-03-17T10:04:26.127Z,77.90
2019-03-17T10:06:53.695Z,78.50
2019-03-17T10:09:21.210Z,77.90
2019-03-17T10:11:48.861Z,78.20
2019-03-17T10:14:16.541Z,77.80
2019-03-17T10:16:44.067Z,78.70
2019-03-17T10:19:11.662Z,78.80
2019-03-17T10:21:39.247Z,77.60
2019-03-17T10:24:06.767Z,77.50
2019-03-17T10:26:34.333Z,76.60
2019-03-17T10:29:01.873Z,75.80
2019-03-17T10:31:29.417Z,75.80
2019-03-17T10:33:57.035Z,76.30
2019-03-17T10:36:24.555Z,74.50
2019-03-17T10:38:52.094Z,74.50
2019-03-17T10:41:19.651Z,75.70
2019-03-17T10:43:47.215Z,72.80
2019-03-17T10:46:14.728Z,71.70
2019-03-17T10:48:42.280Z,72.50
2019-03-17T10:51:09.845Z,72.10
2019-03-17T10:53:37.389Z,71.30
2019-03-17T10:56:04.910Z,70.60
2019-03-17T10:58:32.427Z,70.40
2019-03-17T11:01:00.020Z,70.10
2019-03-17T11:03:27.662Z,69.90
2019-03-17T11:05:55.357Z,70.80
2019-03-17T11:08:23.480Z,69.90
2019-03-17T11:10:51.041Z,69.40
2019-03-17T11:13:18.583Z,68.90
2019-03-17T11:15:46.119Z,68.90
2019-03-17T11:18:13.694Z,68.40
2019-03-17T11:20:46.710Z,69.50
2019-03-17T11:23:14.248Z,68.00
2019-03-17T11:25:41.799Z,67.60
2019-03-17T11:28:09.339Z,65.40
2019-03-17T11:30:36.943Z,64.40
2019-03-17T11:33:04.488Z,64.00
2019-03-17T11:35:32.031Z,64.40
2019-03-17T11:37:59.655Z,63.90
2019-03-17T11:40:27.188Z,63.60
2019-03-17T11:42:54.726Z,64.20
2019-03-17T11:45:22.359Z,64.70
2019-03-17T11:47:50.706Z,63.50
2019-03-17T11:50:18.317Z,62.50
2019-03-17T11:52:45.892Z,62.30
2019-03-17T11:55:13.764Z,62.80
2019-03-17T11:57:41.405Z,62.10
2019-03-17T12:00:10.975Z,63.10
2019-03-17T12:02:38.481Z,62.40
2019-03-17T12:05:06.709Z,61.80
2019-03-17T12:07:34.279Z,61.00
2019-03-17T12:10:01.963Z,60.30
2019-03-17T12:12:29.585Z,60.60
2019-03-17T12:14:57.084Z,60.90
2019-03-17T12:17:24.633Z,59.80
2019-03-17T12:19:52.172Z,60.50
2019-03-17T12:22:19.725Z,59.10
2019-03-17T12:24:47.253Z,58.80
2019-03-17T12:27:14.860Z,58.10
2019-03-17T12:29:42.430Z,57.60
2019-03-17T12:32:09.971Z,57.90
2019-03-17T12:34:37.577Z,57.60
2019-03-17T12:37:05.149Z,57.40
2019-03-17T12:39:32.678Z,57.60
2019-03-17T12:42:00.225Z,58.20
2019-03-17T12:44:27.781Z,57.50
2019-03-17T12:46:55.397Z,57.80
2019-03-17T12:49:22.991Z,57.10
2019-03-17T12:51:50.555Z,57.00
2019-03-17T12:54:18.174Z,57.60
2019-03-17T12:56:45.795Z,55.90
2019-03-17T12:59:13.398Z,55.10
2019-03-17T13:01:41.016Z,54.80
2019-03-17T13:04:08.589Z,53.80
2019-03-17T13:06:36.153Z,53.80
2019-03-17T13:09:06.105Z,53.70
2019-03-17T13:11:33.656Z,54.30
2019-03-17T13:14:01.199Z,52.70
2019-03-17T13:16:28.765Z,51.40
2019-03-17T13:18:56.316Z,51.30
2019-03-17T13:21:23.887Z,51.80
2019-03-17T13:23:51.479Z,51.90
2019-03-17T13:26:19.021Z,51.80
2019-03-17T13:28:46.572Z,51.80
2019-03-17T13:31:14.207Z,51.90
2019-03-17T13:33:41.752Z,50.50
2019-03-17T13:36:09.344Z,50.40
2019-03-17T13:38:36.943Z,50.40
2019-03-17T13:41:04.530Z,49.60
2019-03-17T13:43:32.058Z,49.70
2019-03-17T13:45:59.635Z,49.80
2019-03-17T13:48:27.181Z,49.50
2019-03-17T13:50:54.737Z,49.70
2019-03-17T13:53:23.019Z,49.60
2019-03-17T13:55:51.541Z,49.80
2019-03-17T13:58:19.101Z,50.00
2019-03-17T14:00:46.701Z,50.70
2019-03-17T14:03:14.279Z,49.70
2019-03-17T14:05:41.842Z,49.10
2019-03-17T14:08:09.383Z,49.10
2019-03-17T14:10:41.240Z,49.20
2019-03-17T14:13:06.488Z,49.80
2019-03-17T14:15:34.016Z,49.00
2019-03-17T14:18:01.603Z,49.30
2019-03-17T14:20:29.148Z,48.80
2019-03-17T14:22:56.702Z,49.20
2019-03-17T14:25:24.978Z,49.10
2019-03-17T14:27:52.606Z,48.60
2019-03-17T14:30:20.186Z,49.40
2019-03-17T14:32:47.714Z,49.40
2019-03-17T14:35:15.307Z,49.40
2019-03-17T14:37:42.825Z,49.80
2019-03-17T14:40:12.051Z,49.80
2019-03-17T14:42:39.634Z,50.20
2019-03-17T14:45:08.112Z,50.60
2019-03-17T14:47:35.707Z,50.20
2019-03-17T14:50:03.775Z,50.30
2019-03-17T14:52:31.294Z,50.90
2019-03-17T14:54:58.884Z,50.90
2019-03-17T14:57:26.435Z,50.60
2019-03-17T14:59:54.125Z,50.60
2019-03-17T15:02:21.807Z,50.30
2019-03-17T15:04:49.465Z,49.80
2019-03-17T15:07:16.985Z,50.40
2019-03-17T15:09:44.551Z,50.30
2019-03-17T15:12:12.166Z,49.80
2019-03-17T15:14:39.726Z,49.70
2019-03-17T15:17:07.334Z,49.20
2019-03-17T15:19:34.871Z,49.20
2019-03-17T15:22:02.411Z,49.70
2019-03-17T15:24:29.961Z,49.50
2019-03-17T15:26:57.531Z,50.40
2019-03-17T15:29:25.127Z,50.30
2019-03-17T15:31:52.640Z,50.30
2019-03-17T15:34:20.220Z,50.00
2019-03-17T15:36:48.082Z,50.40
2019-03-17T15:39:15.790Z,50.40
2019-03-17T15:41:43.376Z,49.70
2019-03-17T15:44:10.968Z,49.80
2019-03-17T15:46:38.531Z,49.30
2019-03-17T15:49:06.147Z,49.20
2019-03-17T15:51:33.681Z,49.10
2019-03-17T15:54:01.234Z,48.60
2019-03-17T15:56:28.790Z,48.40
2019-03-17T15:58:56.396Z,48.20
2019-03-17T16:01:24.039Z,47.10
2019-03-17T16:03:51.629Z,47.20
2019-03-17T16:06:19.261Z,46.90
2019-03-17T16:08:47.101Z,46.20
2019-03-17T16:11:14.793Z,46.70
2019-03-17T16:13:42.696Z,47.30
2019-03-17T16:16:10.306Z,47.10
2019-03-17T16:18:37.962Z,46.90
2019-03-17T16:21:05.550Z,47.10
2019-03-17T16:23:33.161Z,47.00
2019-03-17T16:26:00.769Z,47.00
2019-03-17T16:28:28.448Z,46.90
2019-03-17T16:30:56.094Z,47.90
2019-03-17T16:33:23.680Z,48.70
2019-03-17T16:35:51.283Z,49.20
2019-03-17T16:38:18.920Z,49.30
2019-03-17T16:40:46.515Z,50.10
2019-03-17T16:43:15.767Z,50.70
2019-03-17T16:45:43.704Z,51.60
2019-03-17T16:48:11.253Z,52.50
2019-03-17T16:50:38.832Z,52.40
2019-03-17T16:53:06.487Z,51.80
2019-03-17T16:55:34.088Z,52.10
2019-03-17T16:58:01.699Z,53.40
2019-03-17T17:00:29.295Z,54.10
2019-03-17T17:02:56.892Z,55.10
2019-03-17T17:05:24.537Z,56.70
2019-03-17T17:07:52.120Z,56.80
2019-03-17T17:10:19.841Z,57.50
2019-03-17T17:12:47.645Z,58.60
2019-03-17T17:15:19.716Z,58.90
2019-03-17T17:17:47.272Z,59.50
2019-03-17T17:20:16.966Z,60.40
2019-03-17T17:22:44.523Z,60.40
2019-03-17T17:25:12.109Z,60.80
2019-03-17T17:27:39.741Z,61.60
2019-03-17T17:30:09.241Z,62.00
2019-03-17T17:32:36.944Z,62.40
2019-03-17T17:35:04.988Z,62.70
2019-03-17T17:37:32.586Z,64.10
2019-03-17T17:40:00.288Z,65.50
2019-03-17T17:42:27.984Z,66.40
2019-03-17T17:44:55.926Z,66.00
2019-03-17T17:47:23.514Z,66.20
2019-03-17T17:49:51.098Z,67.10
2019-03-17T17:52:18.731Z,67.80
2019-03-17T17:54:46.516Z,68.50
2019-03-17T17:57:14.033Z,70.00
2019-03-17T17:59:41.666Z,69.30
2019-03-17T18:02:09.326Z,69.50
2019-03-17T18:04:37.355Z,69.90
2019-03-17T18:07:04.924Z,70.40
2019-03-17T18:09:32.564Z,70.70
2019-03-17T18:12:00.222Z,71.10
2019-03-17T18:14:27.877Z,71.20
2019-03-17T18:16:55.467Z,73.10
2019-03-17T18:19:23.070Z,72.50
2019-03-17T18:21:50.671Z,72.80
2019-03-17T18:24:18.354Z,73.10
2019-03-17T18:26:45.918Z,72.30
2019-03-17T18:29:13.481Z,72.40
2019-03-17T18:31:41.164Z,72.50
2019-03-17T18:34:09.055Z,73.40
2019-03-17T18:36:38.643Z,73.30
2019-03-17T18:39:06.555Z,72.90
2019-03-17T18:41:34.134Z,72.50
2019-03-17T18:44:01.747Z,72.70
2019-03-17T18:46:29.333Z,73.00
2019-03-17T18:48:56.894Z,73.10
2019-03-17T18:51:25.194Z,73.70
2019-03-17T18:53:54.126Z,74.50
2019-03-17T18:56:21.676Z,74.80
2019-03-17T18:58:49.206Z,75.70
2019-03-17T19:01:16.812Z,75.80
2019-03-17T19:03:44.327Z,75.80
2019-03-17T19:06:11.852Z,76.50
2019-03-17T19:08:39.797Z,76.30
2019-03-17T19:11:07.637Z,76.70
2019-03-17T19:13:35.170Z,77.20
2019-03-17T19:16:02.709Z,77.00
2019-03-17T19:18:30.299Z,76.60
2019-03-17T19:20:57.868Z,76.30
2019-03-17T19:23:25.445Z,77.00
2019-03-17T19:25:52.950Z,77.70
2019-03-17T19:28:20.594Z,78.10
2019-03-17T19:30:48.174Z,78.90
2019-03-17T19:33:15.682Z,79.60
2019-03-17T19:35:43.298Z,79.50
2019-03-17T19:38:10.908Z,80.30
2019-03-17T19:40:38.574Z,80.20
2019-03-17T19:43:06.082Z,81.40
2019-03-17T19:45:33.711Z,81.30
2019-03-17T19:48:01.274Z,81.10
2019-03-17T19:50:28.829Z,81.40
2019-03-17T19:52:56.471Z,82.40
2019-03-17T19:55:24.066Z,82.80
2019-03-17T19:57:51.633Z,82.80
2019-03-17T20:00:19.211Z,82.20
2019-03-17T20:02:47.690Z,81.60
2019-03-17T20:05:15.588Z,81.80
2019-03-17T20:07:43.179Z,81.90
2019-03-17T20:10:12.694Z,81.70
2019-03-17T20:12:40.411Z,82.20
2019-03-17T20:15:08.103Z,82.60
2019-03-17T20:17:35.715Z,83.80
2019-03-17T20:20:04.408Z,84.40
2019-03-17T20:22:31.963Z,84.70
2019-03-17T20:24:59.504Z,85.20
2019-03-17T20:27:27.048Z,85.80
2019-03-17T20:29:54.599Z,86.70
2019-03-17T20:32:22.154Z,87.50
2019-03-17T20:34:49.680Z,87.90
2019-03-17T20:37:17.235Z,88.50
2019-03-17T20:39:44.813Z,89.70
2019-03-17T20:42:12.319Z,89.70
2019-03-17T20:44:39.952Z,90.10
2019-03-17T20:47:07.541Z,90.00
2019-03-17T20:49:35.099Z,90.20
2019-03-17T20:52:02.578Z,90.40
2019-03-17T20:54:30.206Z,90.50
2019-03-17T20:57:00.507Z,90.60
2019-03-17T20:59:27.094Z,90.40
2019-03-17T21:01:54.693Z,90.10
2019-03-17T21:04:22.230Z,89.70
2019-03-17T21:06:49.823Z,89.30
2019-03-17T21:09:17.404Z,89.50
2019-03-17T21:11:45.031Z,87.50
2019-03-17T21:14:13.218Z,85.50
2019-03-17T21:16:40.920Z,82.90
2019-03-17T21:19:08.453Z,81.60
2019-03-17T21:21:36.013Z,79.90
2019-03-17T21:24:03.601Z,79.00
2019-03-17T21:26:31.138Z,78.60
2019-03-17T21:28:58.682Z,78.60
2019-03-17T21:31:26.273Z,78.20
2019-03-17T21:33:53.840Z,79.30
2019-03-17T21:36:21.378Z,78.50
2019-03-17T21:38:48.919Z,77.80
2019-03-17T21:41:16.457Z,77.60
2019-03-17T21:43:44.035Z,77.00
2019-03-17T21:46:11.562Z,76.90
2019-03-17T21:48:39.134Z,76.30
2019-03-17T21:51:06.731Z,76.10
2019-03-17T21:53:34.284Z,76.80
2019-03-17T21:56:01.813Z,77.60
2019-03-17T21:58:29.359Z,77.30
2019-03-17T22:00:56.981Z,77.50
2019-03-17T22:03:24.525Z,77.60
2019-03-17T22:05:52.039Z,78.40
2019-03-17T22:08:19.641Z,78.40
2019-03-17T22:10:47.199Z,78.30
2019-03-17T22:13:14.987Z,78.10
2019-03-17T22:15:42.653Z,78.50
2019-03-17T22:18:10.197Z,79.00
2019-03-17T22:20:37.724Z,79.30
2019-03-17T22:23:05.307Z,79.30
2019-03-17T22:25:32.925Z,78.40
2019-03-17T22:28:08.432Z,77.80
2019-03-17T22:30:29.808Z,76.10
2019-03-17T22:32:57.377Z,77.50
2019-03-17T22:35:24.941Z,78.20
2019-03-17T22:37:52.495Z,78.70
2019-03-17T22:40:20.052Z,77.00
2019-03-17T22:42:47.659Z,77.20
2019-03-17T22:45:15.286Z,78.00
2019-03-17T22:47:42.923Z,80.30
2019-03-17T22:50:10.721Z,83.00
2019-03-17T22:52:38.254Z,84.30
2019-03-17T22:55:06.061Z,85.20
2019-03-17T22:57:33.597Z,87.10
2019-03-17T23:00:01.167Z,87.70
2019-03-17T23:02:29.830Z,87.50
2019-03-17T23:04:57.551Z,87.70
2019-03-17T23:07:25.308Z,88.40
2019-03-17T23:09:53.021Z,89.10
2019-03-17T23:12:20.750Z,89.10
2019-03-17T23:14:48.575Z,90.10
2019-03-17T23:17:16.357Z,90.20
2019-03-17T23:19:44.074Z,90.20
2019-03-17T23:22:11.811Z,90.20
2019-03-17T23:24:39.617Z,90.10
2019-03-17T23:27:07.340Z,90.10
2019-03-17T23:29:35.039Z,89.50
2019-03-17T23:32:02.780Z,89.30
2019-03-17T23:34:30.486Z,87.80
2019-03-17T23:36:58.238Z,87.10
2019-03-17T23:39:25.973Z,87.00
2019-03-17T23:41:53.687Z,87.20
2019-03-17T23:44:21.388Z,87.70
2019-03-17T23:46:49.109Z,87.90
2019-03-17T23:49:16.817Z,88.20
2019-03-17T23:51:44.550Z,88.40
2019-03-17T23:54:12.314Z,87.80
2019-03-17T23:56:40.010Z,87.90
2019-03-17T23:59:07.750Z,88.70
